Terminal Aerodrome Forecast
Issued by NWS Green Bay, WI

Home | Current Version | Previous Version | Graphics & Text | Print | Product List | Glossary On
Versions: 1 2 3 4 5 6 7 8 9 10 11 12 13 14 15 16 17 18 19 20 21 22 23 24 25 26 27 28 29 30 31 32 33 34 35 36 37 38 39 40 41 42
224
FTUS43 KGRB 221457 AAA
TAFGRB
TAF AMD
KGRB 221457Z 2215/2312 28005KT P6SM SCT035
      TEMPO 2215/2217 BKN035
     FM221700 24005KT P6SM SCT250
     FM230100 22006KT P6SM SCT060 OVC080 PROB30 2303/2309 3SM
      -FZRASN BKN030 OVC050
     FM231000 22005KT P6SM BKN035=

USA.gov is the U.S. government's official web portal to all federal, state and local government web resources and services.